createdAt,value
2022-09-12T00:01:10.167Z,99986.78
2022-09-12T00:02:11.826Z,99985.03
2022-09-12T00:03:13.727Z,99984.00
2022-09-12T00:04:15.314Z,99979.75
2022-09-12T00:05:16.932Z,99975.56
2022-09-12T00:06:23.170Z,99980.09
2022-09-12T00:07:24.838Z,99980.94
2022-09-12T00:08:26.483Z,99974.06
2022-09-12T00:09:28.057Z,99980.28
2022-09-12T00:10:29.605Z,99981.03
2022-09-12T00:11:31.589Z,99975.94
2022-09-12T00:12:33.262Z,99983.56
2022-09-12T00:13:39.509Z,99978.91
2022-09-12T00:14:42.921Z,99979.91
2022-09-12T00:15:44.654Z,99977.53
2022-09-12T00:16:46.282Z,99975.00
2022-09-12T00:17:47.857Z,99976.03
2022-09-12T00:18:49.754Z,99972.66
2022-09-12T00:19:51.325Z,99978.56
2022-09-12T00:20:52.782Z,99980.34
2022-09-12T00:21:54.934Z,99975.00
2022-09-12T00:22:56.432Z,99974.22
2022-09-12T00:23:58.158Z,99973.41
2022-09-12T00:25:00.288Z,99975.78
2022-09-12T00:26:05.972Z,99968.78
2022-09-12T00:27:07.800Z,99967.19
2022-09-12T00:28:09.723Z,99967.66
2022-09-12T00:29:16.615Z,99974.81
2022-09-12T00:30:18.221Z,99964.66
2022-09-12T00:31:24.061Z,99971.78
2022-09-12T00:32:25.654Z,99968.97
2022-09-12T00:33:27.168Z,99969.16
2022-09-12T00:34:30.801Z,99969.22
2022-09-12T00:35:32.422Z,99963.97
2022-09-12T00:36:34.200Z,99967.38
2022-09-12T00:37:35.909Z,99965.66
2022-09-12T00:38:38.774Z,99968.31
2022-09-12T00:39:40.619Z,99969.50
2022-09-12T00:40:42.991Z,99959.41
2022-09-12T00:41:44.867Z,99959.75
2022-09-12T00:42:46.345Z,99961.25
2022-09-12T00:43:53.979Z,99957.88
2022-09-12T00:44:55.454Z,99959.38
2022-09-12T00:45:59.589Z,99953.34
2022-09-12T00:47:06.247Z,99957.50
2022-09-12T00:48:18.918Z,99963.78
2022-09-12T00:49:47.610Z,99956.56
2022-09-12T00:50:50.139Z,99946.38
2022-09-12T00:51:58.625Z,99950.78
2022-09-12T00:53:04.285Z,99970.09
2022-09-12T00:54:10.663Z,99948.09
2022-09-12T00:55:16.830Z,99941.22
2022-09-12T00:56:19.808Z,99946.22
2022-09-12T00:57:26.476Z,99941.97
2022-09-12T00:58:32.170Z,99940.47
2022-09-12T00:59:55.186Z,99944.00
2022-09-12T01:00:58.945Z,99916.44
2022-09-12T01:02:01.130Z,99922.34
2022-09-12T01:03:13.641Z,99940.53
2022-09-12T01:04:17.475Z,99931.28
2022-09-12T01:05:19.888Z,99936.38
2022-09-12T01:06:33.209Z,99934.50
2022-09-12T01:07:40.204Z,99930.94
2022-09-12T01:08:44.436Z,99930.84
2022-09-12T01:09:46.434Z,99934.44
2022-09-12T01:10:48.669Z,99932.63
2022-09-12T01:11:51.932Z,99933.56
2022-09-12T01:12:53.590Z,99932.56
2022-09-12T01:13:55.251Z,99931.13
2022-09-12T01:14:56.872Z,99929.25
2022-09-12T01:15:58.421Z,99931.88
2022-09-12T01:17:00.361Z,99923.03
2022-09-12T01:18:01.845Z,99927.47
2022-09-12T01:19:46.237Z,99932.22
2022-09-12T01:21:11.899Z,99931.88
2022-09-12T01:22:35.544Z,99928.41
2022-09-12T01:23:53.845Z,99933.00
2022-09-12T01:25:37.936Z,99931.38
2022-09-12T01:27:16.594Z,99903.13
2022-09-12T01:28:24.141Z,99926.97
2022-09-12T01:29:53.891Z,99921.81
2022-09-12T01:31:19.223Z,99926.22
2022-09-12T01:32:26.868Z,99926.97
2022-09-12T01:33:39.755Z,99915.09
2022-09-12T01:34:53.523Z,99916.81
2022-09-12T01:36:07.372Z,99917.72
2022-09-12T01:37:36.830Z,99919.59
2022-09-12T01:38:41.319Z,99914.50
2022-09-12T01:40:22.369Z,99914.44
2022-09-12T01:41:33.518Z,99942.34
2022-09-12T01:42:47.065Z,99918.75
2022-09-12T01:44:15.467Z,99908.13
2022-09-12T01:45:21.124Z,99916.22
2022-09-12T01:46:47.499Z,99908.31
2022-09-12T01:48:14.739Z,99915.25
2022-09-12T01:49:46.364Z,99912.63
2022-09-12T01:50:56.664Z,99912.47
2022-09-12T01:52:25.832Z,99915.19
2022-09-12T01:53:33.575Z,99908.31
2022-09-12T01:54:49.306Z,99901.34
2022-09-12T01:56:26.616Z,99907.56
2022-09-12T01:57:36.512Z,99902.84
2022-09-12T01:58:41.112Z,99906.28
2022-09-12T01:59:51.021Z,99897.78
2022-09-12T02:01:16.486Z,99902.19
2022-09-12T02:02:18.106Z,99900.41
2022-09-12T02:03:26.847Z,99907.56
2022-09-12T02:04:41.338Z,99902.38
2022-09-12T02:05:52.144Z,99900.69
2022-09-12T02:06:59.879Z,99887.03
2022-09-12T02:08:08.147Z,99896.25
2022-09-12T02:09:21.729Z,99895.50
2022-09-12T02:10:32.379Z,99898.81
2022-09-12T02:11:38.597Z,99895.06
2022-09-12T02:12:49.134Z,99889.88
2022-09-12T02:13:57.965Z,99889.13
2022-09-12T02:15:03.458Z,99883.66
2022-09-12T02:16:11.518Z,99890.66
2022-09-12T02:17:16.559Z,99881.03
2022-09-12T02:18:21.222Z,99883.59
2022-09-12T02:19:27.619Z,99868.16
2022-09-12T02:20:49.613Z,99880.88
2022-09-12T02:21:55.134Z,99873.13
2022-09-12T02:22:58.289Z,99875.00
2022-09-12T02:24:03.406Z,99875.28
2022-09-12T02:25:08.064Z,99875.44
2022-09-12T02:26:25.890Z,99875.56
2022-09-12T02:27:34.003Z,99878.44
2022-09-12T02:28:40.481Z,99880.97
2022-09-12T02:29:44.851Z,99881.94
2022-09-12T02:30:58.120Z,99883.81
2022-09-12T02:32:11.716Z,99873.28
2022-09-12T02:33:27.212Z,99880.41
2022-09-12T02:34:43.896Z,99877.78
2022-09-12T02:35:54.322Z,99873.56
2022-09-12T02:37:02.950Z,99879.47
2022-09-12T02:38:10.247Z,99880.41
2022-09-12T02:39:12.189Z,99895.34
2022-09-12T02:40:14.695Z,99880.69
2022-09-12T02:41:20.099Z,99882.47
2022-09-12T02:42:22.574Z,99880.75
2022-09-12T02:43:24.284Z,99873.88
2022-09-12T02:44:27.921Z,99883.59
2022-09-12T02:45:34.183Z,99885.34
2022-09-12T02:46:43.671Z,99878.38
2022-09-12T02:47:58.676Z,99902.00
2022-09-12T02:49:00.381Z,99883.84
2022-09-12T02:50:02.306Z,99885.34
2022-09-12T02:51:04.095Z,99880.94
2022-09-12T02:52:05.811Z,99884.41
2022-09-12T02:53:08.457Z,99882.63
2022-09-12T02:54:11.708Z,99880.84
2022-09-12T02:55:14.599Z,99869.84
2022-09-12T02:56:25.481Z,99875.69
2022-09-12T02:57:26.983Z,99873.06
2022-09-12T02:58:31.981Z,99873.88
2022-09-12T02:59:33.524Z,99875.69
2022-09-12T03:00:43.000Z,99881.88
2022-09-12T03:01:56.780Z,99879.25
2022-09-12T03:03:07.561Z,99875.09
2022-09-12T03:04:11.797Z,99874.13
2022-09-12T03:05:19.462Z,99871.50
2022-09-12T03:06:41.769Z,99869.84
2022-09-12T03:08:18.679Z,99872.69
2022-09-12T03:09:26.522Z,99874.22
2022-09-12T03:10:32.721Z,99872.84
2022-09-12T03:11:41.300Z,99868.63
2022-09-12T03:12:51.642Z,99872.47
2022-09-12T03:14:17.719Z,99870.06
2022-09-12T03:15:41.438Z,99870.84
2022-09-12T03:17:15.036Z,99869.72
2022-09-12T03:18:53.876Z,99872.38
2022-09-12T03:20:21.645Z,99875.16
2022-09-12T03:21:54.842Z,99867.38
2022-09-12T03:23:03.389Z,99870.13
2022-09-12T03:24:32.939Z,99871.06
2022-09-12T03:25:40.766Z,99876.34
2022-09-12T03:26:59.603Z,99872.75
2022-09-12T03:28:07.514Z,99856.56
2022-09-12T03:29:11.770Z,99880.66
2022-09-12T03:30:13.452Z,99878.66
2022-09-12T03:31:17.971Z,99876.97
2022-09-12T03:32:19.471Z,99872.75
2022-09-12T03:33:23.460Z,99877.94
2022-09-12T03:34:27.550Z,99876.19
2022-09-12T03:35:29.981Z,99875.31
2022-09-12T03:36:31.685Z,99869.22
2022-09-12T03:37:33.216Z,99872.00
2022-09-12T03:38:34.761Z,99865.97
2022-09-12T03:39:36.398Z,99874.22
2022-09-12T03:40:38.885Z,99862.84
2022-09-12T03:41:40.519Z,99873.22
2022-09-12T03:42:42.701Z,99876.66
2022-09-12T03:43:44.656Z,99875.66
2022-09-12T03:44:46.183Z,99877.47
2022-09-12T03:45:50.993Z,99824.00
2022-09-12T03:46:52.567Z,99872.19
2022-09-12T03:47:54.080Z,99875.66
2022-09-12T03:48:55.626Z,99870.66
2022-09-12T03:49:57.096Z,99880.00
2022-09-12T03:51:07.435Z,99875.66
2022-09-12T03:52:08.888Z,99877.34
2022-09-12T03:53:13.005Z,99872.19
2022-09-12T03:54:18.052Z,99880.84
2022-09-12T03:55:19.587Z,99876.41
2022-09-12T03:56:21.294Z,99873.03
2022-09-12T03:57:22.844Z,99877.47
2022-09-12T03:58:25.536Z,99874.22
2022-09-12T03:59:27.023Z,99874.13
2022-09-12T04:00:28.573Z,99875.91
2022-09-12T04:01:30.090Z,99881.38
2022-09-12T04:02:31.653Z,99882.38
2022-09-12T04:03:33.243Z,99877.38
2022-09-12T04:04:34.799Z,99872.03
2022-09-12T04:05:36.708Z,99884.25
2022-09-12T04:06:38.317Z,99877.94
2022-09-12T04:07:39.958Z,99873.03
2022-09-12T04:08:43.590Z,99875.91
2022-09-12T04:09:45.346Z,99870.66
2022-09-12T04:10:46.994Z,99872.53
2022-09-12T04:11:48.567Z,99872.53
2022-09-12T04:12:50.058Z,99876.16
2022-09-12T04:13:51.938Z,99879.06
2022-09-12T04:14:53.611Z,99875.25
2022-09-12T04:16:01.542Z,99870.06
2022-09-12T04:17:03.223Z,99866.41
2022-09-12T04:18:06.115Z,99870.06
2022-09-12T04:19:07.782Z,99869.38
2022-09-12T04:20:09.546Z,99868.63
2022-09-12T04:21:14.142Z,99859.63
2022-09-12T04:22:15.663Z,99867.63
2022-09-12T04:23:17.177Z,99863.88
2022-09-12T04:24:18.914Z,99855.38
2022-09-12T04:25:20.472Z,99866.16
2022-09-12T04:26:22.378Z,99882.03
2022-09-12T04:27:23.997Z,99875.09
2022-09-12T04:28:26.404Z,99861.16
2022-09-12T04:29:29.409Z,99859.31
2022-09-12T04:30:31.117Z,99862.94
2022-09-12T04:31:32.644Z,99852.50
2022-09-12T04:32:34.471Z,99848.50
2022-09-12T04:33:36.909Z,99847.34
2022-09-12T04:34:39.147Z,99857.00
2022-09-12T04:35:41.536Z,99848.25
2022-09-12T04:36:43.119Z,99851.91
2022-09-12T04:37:44.684Z,99849.88
2022-09-12T04:38:47.650Z,99855.13
2022-09-12T04:39:49.739Z,99846.56
2022-09-12T04:40:51.335Z,99842.22
2022-09-12T04:41:52.877Z,99848.44
2022-09-12T04:42:56.022Z,99852.75
2022-09-12T04:44:02.311Z,99850.31
2022-09-12T04:45:04.123Z,99848.59
2022-09-12T04:46:10.586Z,99845.97
2022-09-12T04:47:12.128Z,99847.09
2022-09-12T04:48:13.716Z,99850.63
2022-09-12T04:49:19.362Z,99846.91
2022-09-12T04:50:20.917Z,99858.22
2022-09-12T04:51:28.266Z,99847.00
2022-09-12T04:52:29.791Z,99848.69
2022-09-12T04:53:31.293Z,99852.16
2022-09-12T04:54:33.574Z,99849.38
2022-09-12T04:55:35.557Z,99853.72
2022-09-12T04:56:39.375Z,99847.75
2022-09-12T04:57:40.844Z,99847.84
2022-09-12T04:58:42.579Z,99857.59
2022-09-12T04:59:44.236Z,99845.38
2022-09-12T05:00:45.758Z,99851.13
2022-09-12T05:01:48.492Z,99854.88
2022-09-12T05:02:50.187Z,99857.41
2022-09-12T05:03:51.714Z,99852.34
2022-09-12T05:04:54.231Z,99858.47
2022-09-12T05:05:56.584Z,99858.38
2022-09-12T05:06:58.691Z,99864.38
2022-09-12T05:08:00.187Z,99867.19
2022-09-12T05:09:03.034Z,99866.41
2022-09-12T05:10:04.866Z,99865.75
2022-09-12T05:11:10.128Z,99863.28
2022-09-12T05:12:11.846Z,99867.69
2022-09-12T05:13:13.367Z,99868.44
2022-09-12T05:14:14.911Z,99867.63
2022-09-12T05:15:16.411Z,99866.56
2022-09-12T05:16:18.795Z,99875.41
2022-09-12T05:17:20.355Z,99864.53
2022-09-12T05:18:21.856Z,99875.16
2022-09-12T05:19:23.523Z,99876.94
2022-09-12T05:20:25.203Z,99872.63
2022-09-12T05:21:27.984Z,99881.44
2022-09-12T05:22:29.698Z,99875.41
2022-09-12T05:23:32.097Z,99874.41
2022-09-12T05:24:33.866Z,99871.06
2022-09-12T05:25:35.391Z,99878.72
2022-09-12T05:26:36.941Z,99876.78
2022-09-12T05:27:38.688Z,99878.66
2022-09-12T05:28:40.957Z,99867.69
2022-09-12T05:29:43.090Z,99871.69
2022-09-12T05:30:44.801Z,99871.63
2022-09-12T05:31:50.022Z,99886.28
2022-09-12T05:32:51.675Z,99879.16
2022-09-12T05:33:55.182Z,99873.03
2022-09-12T05:34:56.654Z,99876.63
2022-09-12T05:35:58.452Z,99885.44
2022-09-12T05:36:59.994Z,99877.63
2022-09-12T05:38:01.547Z,99880.16
2022-09-12T05:39:04.470Z,99875.75
2022-09-12T05:40:08.504Z,99875.81
2022-09-12T05:41:16.956Z,99874.75
2022-09-12T05:42:19.838Z,99876.34
2022-09-12T05:43:21.566Z,99870.84
2022-09-12T05:44:23.084Z,99867.25
2022-09-12T05:45:24.923Z,99873.88
2022-09-12T05:46:28.609Z,99872.75
2022-09-12T05:47:30.104Z,99881.28
2022-09-12T05:48:34.260Z,99876.97
2022-09-12T05:49:36.245Z,99868.72
2022-09-12T05:50:37.783Z,99871.50
2022-09-12T05:51:42.279Z,99864.38
2022-09-12T05:52:43.850Z,99872.84
2022-09-12T05:53:47.559Z,99858.28
2022-09-12T05:54:49.105Z,99868.69
2022-09-12T05:55:50.618Z,99758.00
2022-09-12T05:56:52.143Z,99872.38
2022-09-12T05:57:54.066Z,99874.69
2022-09-12T05:58:58.127Z,99868.47
2022-09-12T05:59:59.678Z,99876.19
2022-09-12T06:01:07.360Z,99873.34
2022-09-12T06:02:11.108Z,99873.47
2022-09-12T06:03:12.765Z,99875.56
2022-09-12T06:04:14.583Z,99874.53
2022-09-12T06:05:16.183Z,99873.41
2022-09-12T06:06:19.637Z,99877.19
2022-09-12T06:07:21.143Z,99865.72
2022-09-12T06:08:22.656Z,99878.81
2022-09-12T06:09:25.685Z,99880.78
2022-09-12T06:10:27.285Z,99872.84
2022-09-12T06:11:31.059Z,99869.34
2022-09-12T06:12:32.622Z,99881.22
2022-09-12T06:13:36.892Z,99884.56
2022-09-12T06:14:38.792Z,99876.88
2022-09-12T06:15:40.292Z,99877.09
2022-09-12T06:16:42.254Z,99894.03
2022-09-12T06:17:45.642Z,99873.34
2022-09-12T06:18:55.078Z,99883.50
2022-09-12T06:19:56.945Z,99879.44
2022-09-12T06:21:03.057Z,99872.94
2022-09-12T06:22:05.034Z,99827.44
2022-09-12T06:23:06.678Z,99901.56
2022-09-12T06:24:11.030Z,99885.06
2022-09-12T06:25:12.702Z,99882.00
2022-09-12T06:26:17.389Z,99879.06
2022-09-12T06:27:18.930Z,99881.16
2022-09-12T06:28:20.765Z,99879.84
2022-09-12T06:29:22.394Z,99874.00
2022-09-12T06:30:25.550Z,99874.00
2022-09-12T06:31:30.093Z,99877.00
2022-09-12T06:32:31.710Z,99873.00
2022-09-12T06:33:38.141Z,99873.88
2022-09-12T06:34:39.779Z,99879.28
2022-09-12T06:35:41.395Z,99870.91
2022-09-12T06:36:45.647Z,99870.91
2022-09-12T06:37:47.175Z,99874.53
2022-09-12T06:38:53.557Z,99875.28
2022-09-12T06:39:56.059Z,99867.53
2022-09-12T06:40:58.572Z,99863.97
2022-09-12T06:42:00.104Z,99875.66
2022-09-12T06:43:01.646Z,99854.97
2022-09-12T06:44:03.916Z,99866.69
2022-09-12T06:45:05.844Z,99864.78
2022-09-12T06:46:09.225Z,99865.75
2022-09-12T06:47:12.055Z,99860.72
2022-09-12T06:48:13.572Z,99852.28
2022-09-12T06:49:15.613Z,99861.69
2022-09-12T06:50:17.187Z,99856.19
2022-09-12T06:51:20.505Z,99849.81
2022-09-12T06:52:22.047Z,99855.91
2022-09-12T06:53:23.605Z,99849.00
2022-09-12T06:54:26.447Z,99855.06
2022-09-12T06:55:28.047Z,99848.59
2022-09-12T06:56:29.797Z,99856.50
2022-09-12T06:57:32.603Z,99849.81
2022-09-12T06:58:34.978Z,99855.56
2022-09-12T06:59:36.574Z,99858.34
2022-09-12T07:00:38.561Z,99859.03
2022-09-12T07:01:41.989Z,99851.22
2022-09-12T07:02:43.843Z,99863.72
2022-09-12T07:03:54.232Z,99864.03
2022-09-12T07:04:55.924Z,99859.72
2022-09-12T07:05:57.771Z,99868.63
2022-09-12T07:06:59.329Z,99864.50
2022-09-12T07:08:00.873Z,99863.50
2022-09-12T07:09:05.653Z,99863.91
2022-09-12T07:10:07.628Z,99867.69
2022-09-12T07:11:18.527Z,99870.13
2022-09-12T07:12:20.041Z,99865.44
2022-09-12T07:13:21.508Z,99865.63
2022-09-12T07:14:23.272Z,99870.41
2022-09-12T07:15:24.879Z,99862.31
2022-09-12T07:16:26.567Z,99871.56
2022-09-12T07:17:28.151Z,99869.66
2022-09-12T07:18:29.707Z,99866.78
2022-09-12T07:19:31.246Z,99855.44
2022-09-12T07:20:35.758Z,99865.53
2022-09-12T07:21:40.265Z,99869.34
2022-09-12T07:22:42.244Z,99873.53
2022-09-12T07:23:44.850Z,99867.78
2022-09-12T07:24:46.568Z,99868.72
2022-09-12T07:25:58.461Z,99865.53
2022-09-12T07:26:59.946Z,99873.59
2022-09-12T07:28:02.382Z,99861.31
2022-09-12T07:29:32.276Z,99857.25
2022-09-12T07:30:26.661Z,99862.56
2022-09-12T07:31:28.578Z,99817.78
2022-09-12T07:32:30.097Z,99865.41
2022-09-12T07:33:31.774Z,99866.31
2022-09-12T07:34:34.205Z,99862.59
2022-09-12T07:35:35.930Z,99862.56
2022-09-12T07:36:37.702Z,99866.59
2022-09-12T07:37:39.296Z,99851.22
2022-09-12T07:38:41.694Z,99864.78
2022-09-12T07:39:43.630Z,99862.75
2022-09-12T07:40:45.247Z,99859.81
2022-09-12T07:41:46.995Z,99864.47
2022-09-12T07:42:48.565Z,99867.84
2022-09-12T07:43:55.844Z,99862.31
2022-09-12T07:44:57.351Z,99865.66
2022-09-12T07:45:58.928Z,99858.94
2022-09-12T07:47:00.891Z,99858.25
2022-09-12T07:48:02.584Z,99857.22
2022-09-12T07:49:04.120Z,99860.31
2022-09-12T07:50:06.074Z,99855.66
2022-09-12T07:51:09.915Z,99864.59
2022-09-12T07:52:11.502Z,99869.31
2022-09-12T07:53:13.056Z,99868.25
2022-09-12T07:54:14.743Z,99863.38
2022-09-12T07:55:16.821Z,99853.38
2022-09-12T07:56:27.333Z,99863.88
2022-09-12T07:57:31.143Z,99873.41
2022-09-12T07:58:34.957Z,99866.59
2022-09-12T07:59:52.496Z,99873.06
2022-09-12T08:00:54.987Z,99865.94
2022-09-12T08:01:56.476Z,99866.22
2022-09-12T08:02:58.052Z,99870.97
2022-09-12T08:04:00.420Z,99875.41
2022-09-12T08:05:02.497Z,99872.63
2022-09-12T08:06:04.079Z,99870.16
2022-09-12T08:07:06.564Z,99881.31
2022-09-12T08:08:08.540Z,99882.56
2022-09-12T08:09:12.138Z,99881.50
2022-09-12T08:10:13.929Z,99870.25
2022-09-12T08:11:18.468Z,99875.94
2022-09-12T08:12:20.428Z,99876.63
2022-09-12T08:13:21.956Z,99875.00
2022-09-12T08:14:23.678Z,99883.25
2022-09-12T08:15:25.419Z,99865.44
2022-09-12T08:16:30.224Z,99881.75
2022-09-12T08:17:31.742Z,99881.41
2022-09-12T08:18:36.322Z,99805.75
2022-09-12T08:19:38.862Z,99872.84
2022-09-12T08:20:40.407Z,99872.53
2022-09-12T08:21:41.911Z,99873.50
2022-09-12T08:22:44.250Z,99874.03
2022-09-12T08:23:46.808Z,99873.03
2022-09-12T08:24:49.179Z,99867.72
2022-09-12T08:25:52.115Z,99876.53
2022-09-12T08:26:53.647Z,99872.47
2022-09-12T08:27:55.616Z,99871.66
2022-09-12T08:28:57.263Z,99874.06
2022-09-12T08:29:59.116Z,99870.44
2022-09-12T08:31:02.289Z,99870.72
2022-09-12T08:32:04.092Z,99868.66
2022-09-12T08:33:06.915Z,99872.00
2022-09-12T08:34:09.427Z,99854.44
2022-09-12T08:35:10.960Z,99874.53
2022-09-12T08:36:18.192Z,99879.41
2022-09-12T08:37:19.911Z,99877.16
2022-09-12T08:38:21.489Z,99873.09
2022-09-12T08:39:24.635Z,99879.94
2022-09-12T08:40:26.255Z,99874.59
2022-09-12T08:41:31.861Z,99868.22
2022-09-12T08:42:51.611Z,99877.53
2022-09-12T08:44:11.623Z,99875.53
2022-09-12T08:45:21.776Z,99872.03
2022-09-12T08:46:31.694Z,99861.56
2022-09-12T08:47:40.142Z,99872.19
2022-09-12T08:48:50.133Z,99871.34
2022-09-12T08:50:11.972Z,99874.28
2022-09-12T08:51:16.772Z,99876.50
2022-09-12T08:52:24.209Z,99870.47
2022-09-12T08:53:29.096Z,99871.28
2022-09-12T08:54:32.365Z,99870.91
2022-09-12T08:55:35.482Z,99872.25
2022-09-12T08:56:38.962Z,99866.94
2022-09-12T08:57:40.639Z,99860.31
2022-09-12T08:58:45.493Z,99869.91
2022-09-12T08:59:48.275Z,99869.50
2022-09-12T09:01:08.652Z,99871.56
2022-09-12T09:02:45.856Z,99866.63
2022-09-12T09:04:09.347Z,99865.97
2022-09-12T09:05:14.291Z,99868.59
2022-09-12T09:06:36.237Z,99865.69
2022-09-12T09:08:01.816Z,99873.63
2022-09-12T09:09:24.279Z,99871.53
2022-09-12T09:10:46.279Z,99874.72
2022-09-12T09:12:09.380Z,99867.44
2022-09-12T09:14:09.562Z,99865.72
2022-09-12T09:16:01.778Z,99866.94
2022-09-12T09:17:11.374Z,99864.63
2022-09-12T09:18:23.281Z,99856.06
2022-09-12T09:19:37.568Z,99861.47
2022-09-12T09:20:49.492Z,99866.34
2022-09-12T09:21:57.105Z,99859.03
2022-09-12T09:23:02.391Z,99867.09
2022-09-12T09:24:11.793Z,99867.69
2022-09-12T09:25:25.151Z,99868.38
2022-09-12T09:26:41.965Z,99869.44
2022-09-12T09:27:51.981Z,99868.28
2022-09-12T09:29:02.694Z,99865.00
2022-09-12T09:30:05.486Z,99870.47
2022-09-12T09:31:15.084Z,99862.25
2022-09-12T09:32:25.639Z,99863.31
2022-09-12T09:33:33.702Z,99868.53
2022-09-12T09:34:35.492Z,99872.03
2022-09-12T09:35:59.277Z,99869.00
2022-09-12T09:37:31.648Z,99870.69
2022-09-12T09:38:54.175Z,99870.03
2022-09-12T09:40:08.269Z,99862.13
2022-09-12T09:41:28.196Z,99874.72
2022-09-12T09:42:38.851Z,99863.66
2022-09-12T09:43:40.669Z,99860.56
2022-09-12T09:44:43.770Z,99860.66
2022-09-12T09:45:47.837Z,99861.47
2022-09-12T09:46:56.037Z,99868.75
2022-09-12T09:48:03.611Z,99862.94
2022-09-12T09:49:07.134Z,99859.44
2022-09-12T09:50:16.554Z,99862.28
2022-09-12T09:51:25.132Z,99857.31
2022-09-12T09:52:30.919Z,99859.66
2022-09-12T09:53:46.210Z,99858.63
2022-09-12T09:54:54.267Z,99856.66
2022-09-12T09:55:56.839Z,99857.75
2022-09-12T09:56:58.410Z,99851.72
2022-09-12T09:58:00.382Z,99858.78
2022-09-12T09:59:32.215Z,99858.97
2022-09-12T10:00:38.527Z,99851.09
2022-09-12T10:02:03.974Z,99849.03
2022-09-12T10:03:14.913Z,99853.16
2022-09-12T10:04:29.418Z,99852.75
2022-09-12T10:05:34.783Z,99790.91
2022-09-12T10:06:38.118Z,99853.16
2022-09-12T10:07:50.169Z,99847.50
2022-09-12T10:08:52.089Z,99855.94
2022-09-12T10:10:17.241Z,99850.63
2022-09-12T10:11:22.399Z,99847.53
2022-09-12T10:12:28.482Z,99847.47
2022-09-12T10:13:35.236Z,99840.16
2022-09-12T10:14:40.267Z,99839.69
2022-09-12T10:15:57.601Z,99841.03
2022-09-12T10:16:59.512Z,99845.41
2022-09-12T10:18:02.998Z,99846.03
2022-09-12T10:19:04.528Z,99840.66
2022-09-12T10:20:30.366Z,99834.81
2022-09-12T10:22:15.897Z,99834.41
2022-09-12T10:23:37.355Z,99843.41
2022-09-12T10:24:47.328Z,99836.53
2022-09-12T10:25:53.986Z,99837.09
2022-09-12T10:27:13.291Z,99826.69
2022-09-12T10:28:37.408Z,99828.94
2022-09-12T10:30:04.169Z,99835.19
2022-09-12T10:31:08.400Z,99837.50
2022-09-12T10:32:12.574Z,99832.28
2022-09-12T10:33:15.106Z,99831.97
2022-09-12T10:34:38.002Z,99833.84
2022-09-12T10:35:49.087Z,99829.59
2022-09-12T10:36:54.584Z,99819.41
2022-09-12T10:38:06.455Z,99819.75
2022-09-12T10:39:18.789Z,99817.28
2022-09-12T10:40:29.531Z,99820.81
2022-09-12T10:41:39.676Z,99829.66
2022-09-12T10:42:54.467Z,99822.97
2022-09-12T10:44:07.606Z,99815.81
2022-09-12T10:45:38.763Z,99808.69
2022-09-12T10:46:40.570Z,99820.13
2022-09-12T10:47:42.153Z,99808.53
2022-09-12T10:48:45.530Z,99812.13
2022-09-12T10:49:47.054Z,99813.19
2022-09-12T10:50:48.555Z,99811.00
2022-09-12T10:51:51.976Z,99813.59
2022-09-12T10:52:54.881Z,99811.56
2022-09-12T10:54:02.674Z,99814.91
2022-09-12T10:55:12.061Z,99803.28
2022-09-12T10:56:19.329Z,99810.78
2022-09-12T10:57:33.249Z,99806.38
2022-09-12T10:58:50.142Z,99810.47
2022-09-12T11:00:04.961Z,99760.06
2022-09-12T11:01:18.908Z,99801.38
2022-09-12T11:02:28.671Z,99796.63
2022-09-12T11:03:56.996Z,99795.88
2022-09-12T11:05:22.588Z,99796.81
2022-09-12T11:06:33.410Z,99797.50
2022-09-12T11:07:42.659Z,99774.94
2022-09-12T11:08:57.940Z,99796.22
2022-09-12T11:10:18.305Z,99799.53
2022-09-12T11:11:57.159Z,99791.13
2022-09-12T11:13:06.766Z,99792.19
2022-09-12T11:14:44.245Z,99786.59
2022-09-12T11:15:54.902Z,99742.47
2022-09-12T11:17:24.814Z,99780.66
2022-09-12T11:18:43.312Z,99781.25
2022-09-12T11:20:10.558Z,99782.44
2022-09-12T11:21:27.310Z,99789.91
2022-09-12T11:22:47.441Z,99784.53
2022-09-12T11:24:22.748Z,99789.53
2022-09-12T11:25:43.198Z,99783.34
2022-09-12T11:26:50.466Z,99775.09
2022-09-12T11:28:02.984Z,99779.09
2022-09-12T11:29:19.577Z,99783.16
2022-09-12T11:30:21.057Z,99786.59
2022-09-12T11:31:31.937Z,99778.03
2022-09-12T11:32:33.691Z,99775.81
2022-09-12T11:33:45.406Z,99774.00
2022-09-12T11:35:02.759Z,99769.63
2022-09-12T11:36:12.612Z,99773.00
2022-09-12T11:37:26.024Z,99764.53
2022-09-12T11:38:44.533Z,99767.41
2022-09-12T11:39:52.246Z,99752.06
2022-09-12T11:41:07.301Z,99758.19
2022-09-12T11:42:34.783Z,99753.78
2022-09-12T11:43:55.474Z,99761.38
2022-09-12T11:45:08.062Z,99728.66
2022-09-12T11:46:51.765Z,99748.78
2022-09-12T11:47:59.826Z,99750.16
2022-09-12T11:49:04.846Z,99749.94
2022-09-12T11:50:21.643Z,99742.44
2022-09-12T11:51:38.356Z,99738.94
2022-09-12T11:52:40.620Z,99736.91
2022-09-12T11:53:44.539Z,99730.03
2022-09-12T11:54:53.711Z,99730.94
2022-09-12T11:56:04.142Z,99730.59
2022-09-12T11:57:11.928Z,99724.03
2022-09-12T11:58:14.790Z,99718.13
2022-09-12T11:59:37.295Z,99722.59
2022-09-12T12:00:46.710Z,99718.22
2022-09-12T12:01:53.643Z,99725.63
2022-09-12T12:03:08.456Z,99719.16
2022-09-12T12:04:18.057Z,99725.88
2022-09-12T12:05:24.396Z,99719.44
2022-09-12T12:06:46.827Z,99727.59
2022-09-12T12:07:55.733Z,99726.22
2022-09-12T12:08:58.241Z,99724.09
2022-09-12T12:09:59.746Z,99715.59
2022-09-12T12:11:03.952Z,99712.41
2022-09-12T12:12:14.271Z,99718.56
2022-09-12T12:13:30.705Z,99726.16
2022-09-12T12:14:47.808Z,99715.78
2022-09-12T12:15:55.217Z,99713.25
2022-09-12T12:16:57.234Z,99714.28
2022-09-12T12:18:06.574Z,99715.41
2022-09-12T12:19:14.038Z,99713.38
2022-09-12T12:20:17.940Z,99712.47
2022-09-12T12:21:29.283Z,99716.53
2022-09-12T12:22:31.359Z,99716.56
2022-09-12T12:23:35.347Z,99705.66
2022-09-12T12:25:04.999Z,99707.44
2022-09-12T12:26:41.529Z,99704.72
2022-09-12T12:27:59.118Z,99705.91
2022-09-12T12:29:01.161Z,99703.44
2022-09-12T12:30:02.767Z,99707.69
2022-09-12T12:31:05.783Z,99708.91
2022-09-12T12:32:07.925Z,99709.53
2022-09-12T12:33:13.045Z,99716.53
2022-09-12T12:34:27.926Z,99712.22
2022-09-12T12:35:35.525Z,99708.66
2022-09-12T12:36:40.298Z,99708.31
2022-09-12T12:37:41.799Z,99707.81
2022-09-12T12:38:43.342Z,99717.06
2022-09-12T12:39:48.063Z,99712.97
2022-09-12T12:40:50.435Z,99708.66
2022-09-12T12:41:51.989Z,99709.22
2022-09-12T12:42:56.298Z,99708.28
2022-09-12T12:44:36.362Z,99701.03
2022-09-12T12:45:37.934Z,99699.59
2022-09-12T12:46:39.729Z,99708.31
2022-09-12T12:47:44.760Z,99701.31
2022-09-12T12:48:52.680Z,99697.66
2022-09-12T12:50:01.612Z,99695.47
2022-09-12T12:51:38.023Z,99704.66
2022-09-12T12:53:03.197Z,99694.13
2022-09-12T12:54:25.952Z,99689.81
2022-09-12T12:55:42.524Z,99683.94
2022-09-12T12:56:44.335Z,99686.69
2022-09-12T12:57:49.257Z,99691.75
2022-09-12T12:58:58.627Z,99696.31
2022-09-12T13:00:02.121Z,99686.94
2022-09-12T13:01:09.711Z,99687.41
2022-09-12T13:02:49.282Z,99695.84
2022-09-12T13:03:58.568Z,99694.72
2022-09-12T13:05:02.853Z,99691.75
2022-09-12T13:06:08.854Z,99692.19
2022-09-12T13:07:26.235Z,99693.75
2022-09-12T13:08:33.508Z,99690.88
2022-09-12T13:09:35.007Z,99688.56
2022-09-12T13:10:37.758Z,99696.09
2022-09-12T13:11:41.126Z,99680.97
2022-09-12T13:12:47.622Z,99678.31
2022-09-12T13:14:13.593Z,99678.91